createdAt,value
2023-08-11T00:00:01.691Z,45.65
2023-08-11T00:02:41.406Z,45.68
2023-08-11T00:05:12.595Z,45.62
2023-08-11T00:07:39.517Z,45.65
2023-08-11T00:10:09.059Z,45.50
2023-08-11T00:12:36.463Z,45.66
2023-08-11T00:15:03.589Z,45.46
2023-08-11T00:17:30.514Z,45.66
2023-08-11T00:19:58.181Z,45.69
2023-08-11T00:22:25.288Z,45.84
2023-08-11T00:24:52.167Z,45.61
2023-08-11T00:27:21.024Z,45.48
2023-08-11T00:29:47.946Z,45.81
2023-08-11T00:32:14.898Z,45.72
2023-08-11T00:34:41.776Z,45.69
2023-08-11T00:37:09.230Z,45.75
2023-08-11T00:39:36.886Z,45.70
2023-08-11T00:42:04.115Z,45.76
2023-08-11T00:44:31.369Z,45.84
2023-08-11T00:46:59.121Z,45.73
2023-08-11T00:49:26.063Z,45.71
2023-08-11T00:51:53.636Z,45.84
2023-08-11T00:54:22.459Z,45.66
2023-08-11T00:56:50.287Z,45.72
2023-08-11T00:59:20.430Z,45.87
2023-08-11T01:01:47.325Z,45.87
2023-08-11T01:04:14.392Z,45.71
2023-08-11T01:06:46.223Z,45.79
2023-08-11T01:09:31.150Z,45.61
2023-08-11T01:12:24.845Z,45.29
2023-08-11T01:15:16.255Z,45.75
2023-08-11T01:17:46.526Z,45.42
2023-08-11T01:20:17.264Z,45.72
2023-08-11T01:22:54.911Z,45.73
2023-08-11T01:25:22.598Z,45.68
2023-08-11T01:27:56.929Z,45.69
2023-08-11T01:30:26.390Z,45.81
2023-08-11T01:32:53.569Z,45.66
2023-08-11T01:35:33.615Z,45.81
2023-08-11T01:38:10.017Z,45.70
2023-08-11T01:40:38.264Z,45.70
2023-08-11T01:43:08.548Z,45.92
2023-08-11T01:45:35.788Z,45.61
2023-08-11T01:48:04.689Z,45.98
2023-08-11T01:50:34.505Z,45.73
2023-08-11T01:53:01.754Z,45.88
2023-08-11T01:55:30.255Z,45.81
2023-08-11T01:57:59.756Z,45.81
2023-08-11T02:00:29.616Z,45.89
2023-08-11T02:02:58.685Z,46.01
2023-08-11T02:05:26.714Z,45.79
2023-08-11T02:07:56.649Z,45.77
2023-08-11T02:10:24.291Z,45.81
2023-08-11T02:12:51.143Z,45.95
2023-08-11T02:15:18.137Z,45.75
2023-08-11T02:17:45.429Z,45.81
2023-08-11T02:20:22.637Z,45.81
2023-08-11T02:22:50.522Z,45.70
2023-08-11T02:25:17.993Z,45.82
2023-08-11T02:27:45.404Z,45.94
2023-08-11T02:30:13.905Z,45.73
2023-08-11T02:32:42.685Z,45.88
2023-08-11T02:35:11.784Z,45.68
2023-08-11T02:37:40.205Z,45.71
2023-08-11T02:40:11.878Z,45.95
2023-08-11T02:42:45.174Z,45.69
2023-08-11T02:45:12.648Z,45.67
2023-08-11T02:47:43.420Z,45.99
2023-08-11T02:50:11.450Z,45.94
2023-08-11T02:52:38.735Z,45.83
2023-08-11T02:55:08.074Z,45.81
2023-08-11T02:57:36.354Z,45.84
2023-08-11T03:00:16.105Z,45.84
2023-08-11T03:02:47.424Z,45.83
2023-08-11T03:05:16.676Z,45.97
2023-08-11T03:07:45.115Z,45.77
2023-08-11T03:10:12.420Z,45.85
2023-08-11T03:12:41.758Z,45.69
2023-08-11T03:15:10.017Z,45.84
2023-08-11T03:17:38.411Z,45.62
2023-08-11T03:20:16.346Z,45.90
2023-08-11T03:22:46.154Z,45.74
2023-08-11T03:25:16.654Z,45.68
2023-08-11T03:27:44.692Z,45.75
2023-08-11T03:30:19.076Z,45.82
2023-08-11T03:32:50.747Z,45.69
2023-08-11T03:35:19.378Z,45.99
2023-08-11T03:37:48.413Z,45.61
2023-08-11T03:40:18.051Z,45.77
2023-08-11T03:42:51.616Z,45.60
2023-08-11T03:45:18.529Z,45.77
2023-08-11T03:47:45.469Z,45.72
2023-08-11T03:50:18.543Z,45.82
2023-08-11T03:52:47.437Z,45.89
2023-08-11T03:55:14.894Z,45.87
2023-08-11T03:57:41.852Z,46.02
2023-08-11T04:00:16.417Z,46.01
2023-08-11T04:02:50.306Z,45.81
2023-08-11T04:05:18.658Z,45.99
2023-08-11T04:07:45.590Z,45.89
2023-08-11T04:10:12.732Z,45.94
2023-08-11T04:12:40.008Z,45.79
2023-08-11T04:15:07.723Z,45.97
2023-08-11T04:17:35.021Z,46.04
2023-08-11T04:20:02.261Z,46.00
2023-08-11T04:22:38.537Z,45.91
2023-08-11T04:25:11.733Z,46.00
2023-08-11T04:27:42.719Z,46.21
2023-08-11T04:30:11.689Z,46.36
2023-08-11T04:32:40.214Z,46.23
2023-08-11T04:35:09.266Z,46.09
2023-08-11T04:37:38.537Z,46.18
2023-08-11T04:40:14.753Z,46.05
2023-08-11T04:42:43.491Z,45.34
2023-08-11T04:45:13.336Z,45.73
2023-08-11T04:47:41.469Z,45.67
2023-08-11T04:50:12.955Z,45.87
2023-08-11T04:52:40.156Z,45.90
2023-08-11T04:55:08.790Z,45.81
2023-08-11T04:57:36.885Z,45.83
2023-08-11T05:00:07.982Z,46.05
2023-08-11T05:02:34.991Z,45.70
2023-08-11T05:05:02.099Z,46.02
2023-08-11T05:07:30.283Z,45.94
2023-08-11T05:10:00.231Z,45.94
2023-08-11T05:12:27.129Z,45.90
2023-08-11T05:14:54.504Z,46.01
2023-08-11T05:17:21.371Z,46.03
2023-08-11T05:19:48.326Z,46.01
2023-08-11T05:22:15.217Z,46.11
2023-08-11T05:24:42.101Z,46.03
2023-08-11T05:27:10.049Z,45.99
2023-08-11T05:29:37.195Z,45.86
2023-08-11T05:32:04.654Z,45.96
2023-08-11T05:34:31.614Z,46.07
2023-08-11T05:37:01.328Z,46.15
2023-08-11T05:39:30.007Z,45.74
2023-08-11T05:41:58.001Z,46.17
2023-08-11T05:44:24.974Z,45.90
2023-08-11T05:46:51.944Z,46.01
2023-08-11T05:49:18.813Z,46.07
2023-08-11T05:51:45.713Z,46.03
2023-08-11T05:54:12.644Z,46.11
2023-08-11T05:56:39.555Z,45.89
2023-08-11T05:59:06.430Z,45.96
2023-08-11T06:01:33.605Z,45.96
2023-08-11T06:04:00.589Z,46.21
2023-08-11T06:06:27.833Z,46.08
2023-08-11T06:08:56.010Z,46.09
2023-08-11T06:11:22.959Z,46.10
2023-08-11T06:13:49.883Z,46.07
2023-08-11T06:16:16.802Z,46.21
2023-08-11T06:18:43.701Z,46.23
2023-08-11T06:21:10.817Z,46.38
2023-08-11T06:23:37.780Z,46.11
2023-08-11T06:26:04.662Z,46.22
2023-08-11T06:28:31.534Z,46.32
2023-08-11T06:30:59.753Z,46.24
2023-08-11T06:33:26.857Z,46.25
2023-08-11T06:35:54.189Z,46.18
2023-08-11T06:38:21.170Z,46.28
2023-08-11T06:40:48.802Z,46.20
2023-08-11T06:43:15.683Z,46.18
2023-08-11T06:45:46.111Z,46.43
2023-08-11T06:48:13.433Z,46.18
2023-08-11T06:50:40.425Z,46.21
2023-08-11T06:53:07.398Z,46.35
2023-08-11T06:55:34.306Z,46.36
2023-08-11T06:58:03.161Z,46.53
2023-08-11T07:00:30.092Z,46.47
2023-08-11T07:02:57.592Z,46.67
2023-08-11T07:05:24.528Z,46.58
2023-08-11T07:07:51.377Z,46.34
2023-08-11T07:10:18.478Z,46.50
2023-08-11T07:12:45.366Z,46.57
2023-08-11T07:15:12.302Z,46.46
2023-08-11T07:17:39.449Z,46.33
2023-08-11T07:20:07.613Z,46.61
2023-08-11T07:22:34.523Z,46.54
2023-08-11T07:25:01.474Z,46.53
2023-08-11T07:27:28.546Z,46.50
2023-08-11T07:29:55.425Z,46.64
2023-08-11T07:32:22.325Z,46.53
2023-08-11T07:34:49.223Z,46.48
2023-08-11T07:37:16.201Z,46.42
2023-08-11T07:39:43.693Z,46.46
2023-08-11T07:42:10.598Z,46.56
2023-08-11T07:44:38.009Z,46.58
2023-08-11T07:47:05.162Z,46.54
2023-08-11T07:49:32.683Z,46.57
2023-08-11T07:51:59.897Z,46.68
2023-08-11T07:54:27.221Z,46.50
2023-08-11T07:56:54.211Z,46.50
2023-08-11T07:59:21.274Z,46.66
2023-08-11T08:01:48.560Z,46.57
2023-08-11T08:04:15.893Z,46.44
2023-08-11T08:06:46.807Z,46.56
2023-08-11T08:09:16.007Z,46.61
2023-08-11T08:11:45.339Z,46.66
2023-08-11T08:14:13.424Z,46.78
2023-08-11T08:16:43.235Z,46.65
2023-08-11T08:19:12.210Z,46.56
2023-08-11T08:21:40.297Z,46.84
2023-08-11T08:24:09.087Z,46.57
2023-08-11T08:26:37.351Z,46.67
2023-08-11T08:29:05.165Z,46.59
2023-08-11T08:31:32.636Z,46.73
2023-08-11T08:34:00.445Z,46.55
2023-08-11T08:36:27.618Z,46.67
2023-08-11T08:38:54.568Z,46.68
2023-08-11T08:41:29.050Z,46.57
2023-08-11T08:43:57.353Z,46.64
2023-08-11T08:46:31.647Z,46.48
2023-08-11T08:49:23.573Z,46.64
2023-08-11T08:51:50.890Z,46.68
2023-08-11T08:54:18.062Z,46.84
2023-08-11T08:56:45.082Z,46.60
2023-08-11T08:59:12.463Z,46.60
2023-08-11T09:01:40.179Z,46.50
2023-08-11T09:04:09.325Z,46.51
2023-08-11T09:06:36.649Z,46.70
2023-08-11T09:09:05.873Z,46.99
2023-08-11T09:11:33.096Z,46.82
2023-08-11T09:14:09.298Z,46.87
2023-08-11T09:16:39.049Z,46.80
2023-08-11T09:19:11.273Z,46.86
2023-08-11T09:21:41.185Z,46.87
2023-08-11T09:24:13.252Z,47.05
2023-08-11T09:26:53.616Z,46.77
2023-08-11T09:29:21.771Z,46.81
2023-08-11T09:31:54.003Z,46.86
2023-08-11T09:34:21.803Z,46.96
2023-08-11T09:36:50.360Z,46.84
2023-08-11T09:39:17.852Z,47.08
2023-08-11T09:41:49.928Z,47.02
2023-08-11T09:44:19.997Z,47.06
2023-08-11T09:46:48.677Z,47.23
2023-08-11T09:49:15.742Z,47.23
2023-08-11T09:51:43.997Z,47.33
2023-08-11T09:54:12.767Z,47.31
2023-08-11T09:56:44.778Z,47.26
2023-08-11T09:59:18.042Z,47.28
2023-08-11T10:01:47.282Z,47.45
2023-08-11T10:04:23.721Z,47.21
2023-08-11T10:06:57.956Z,47.32
2023-08-11T10:09:27.008Z,47.50
2023-08-11T10:11:58.874Z,47.33
2023-08-11T10:14:29.333Z,47.43
2023-08-11T10:17:00.326Z,47.47
2023-08-11T10:19:28.410Z,47.36
2023-08-11T10:21:58.260Z,47.72
2023-08-11T10:24:26.806Z,47.42
2023-08-11T10:26:54.784Z,47.37
2023-08-11T10:29:23.057Z,47.67
2023-08-11T10:32:00.436Z,47.35
2023-08-11T10:34:28.164Z,47.35
2023-08-11T10:36:58.659Z,47.61
2023-08-11T10:39:27.213Z,47.48
2023-08-11T10:41:58.497Z,47.80
2023-08-11T10:44:31.391Z,47.50
2023-08-11T10:47:02.618Z,47.64
2023-08-11T10:49:42.957Z,47.74
2023-08-11T10:52:12.423Z,47.67
2023-08-11T10:54:39.550Z,47.60
2023-08-11T10:57:06.772Z,47.67
2023-08-11T10:59:35.573Z,47.86
2023-08-11T11:02:03.019Z,48.19
2023-08-11T11:04:32.654Z,47.58
2023-08-11T11:07:01.633Z,48.06
2023-08-11T11:09:29.935Z,48.10
2023-08-11T11:11:57.641Z,47.86
2023-08-11T11:14:28.454Z,48.16
2023-08-11T11:17:00.367Z,47.68
2023-08-11T11:19:27.875Z,47.77
2023-08-11T11:21:56.056Z,48.18
2023-08-11T11:24:23.322Z,47.99
2023-08-11T11:26:50.379Z,47.91
2023-08-11T11:29:22.437Z,48.24
2023-08-11T11:31:50.313Z,48.10
2023-08-11T11:34:18.930Z,48.38
2023-08-11T11:36:46.250Z,48.34
2023-08-11T11:39:14.151Z,48.00
2023-08-11T11:41:41.257Z,48.01
2023-08-11T11:44:08.230Z,48.25
2023-08-11T11:46:35.616Z,48.34
2023-08-11T11:49:12.717Z,48.06
2023-08-11T11:55:14.327Z,48.21
2023-08-11T11:57:41.342Z,48.14
2023-08-11T12:00:17.211Z,48.09
2023-08-11T12:02:45.322Z,48.41
2023-08-11T12:05:14.018Z,48.21
2023-08-11T12:07:41.307Z,48.34
2023-08-11T12:10:08.796Z,48.32
2023-08-11T12:12:36.304Z,48.29
2023-08-11T12:15:07.977Z,48.55
2023-08-11T12:17:37.182Z,48.64
2023-08-11T12:20:08.471Z,48.62
2023-08-11T12:22:36.485Z,48.69
2023-08-11T12:25:04.419Z,48.25
2023-08-11T12:27:31.342Z,48.54
2023-08-11T12:29:58.221Z,48.42
2023-08-11T12:32:25.130Z,48.26
2023-08-11T12:34:52.601Z,48.54
2023-08-11T12:37:19.601Z,48.64
2023-08-11T12:39:46.480Z,48.38
2023-08-11T12:42:13.437Z,48.68
2023-08-11T12:44:40.709Z,48.54
2023-08-11T12:47:07.753Z,48.54
2023-08-11T12:49:34.742Z,48.61
2023-08-11T12:52:02.030Z,48.25
2023-08-11T12:54:29.011Z,48.34
2023-08-11T12:56:55.916Z,48.45
2023-08-11T12:59:22.952Z,48.80
2023-08-11T13:01:49.956Z,48.27
2023-08-11T13:04:17.149Z,48.56
2023-08-11T13:06:44.023Z,48.47
2023-08-11T13:09:12.878Z,48.61
2023-08-11T13:11:39.954Z,48.48
2023-08-11T13:14:07.158Z,48.53
2023-08-11T13:16:36.619Z,48.40
2023-08-11T13:19:04.317Z,48.60
2023-08-11T13:21:32.169Z,48.60
2023-08-11T13:24:00.735Z,48.67
2023-08-11T13:26:28.007Z,48.74
2023-08-11T13:28:58.241Z,48.59
2023-08-11T13:31:26.326Z,48.41
2023-08-11T13:33:53.212Z,48.38
2023-08-11T13:36:20.220Z,48.80
2023-08-11T13:38:47.775Z,48.62
2023-08-11T13:41:14.791Z,48.45
2023-08-11T13:43:41.707Z,48.49
2023-08-11T13:46:08.811Z,48.76
2023-08-11T13:48:35.804Z,48.48
2023-08-11T13:51:04.753Z,48.53
2023-08-11T13:53:31.691Z,48.59
2023-08-11T13:55:58.620Z,48.68
2023-08-11T13:58:25.612Z,48.38
2023-08-11T14:00:52.644Z,48.78
2023-08-11T14:03:19.655Z,48.70
2023-08-11T14:05:46.614Z,48.52
2023-08-11T14:08:13.522Z,48.59
2023-08-11T14:10:40.610Z,48.63
2023-08-11T14:13:10.269Z,48.93
2023-08-11T14:15:38.784Z,48.65
2023-08-11T14:18:07.469Z,48.94
2023-08-11T14:20:34.886Z,48.58
2023-08-11T14:23:01.991Z,48.92
2023-08-11T14:25:28.971Z,48.99
2023-08-11T14:27:56.087Z,48.81
2023-08-11T14:30:23.130Z,48.51
2023-08-11T14:32:50.210Z,48.84
2023-08-11T14:35:17.253Z,48.46
2023-08-11T14:37:44.170Z,48.90
2023-08-11T14:40:11.695Z,48.79
2023-08-11T14:42:38.568Z,48.75
2023-08-11T14:45:07.012Z,48.85
2023-08-11T14:47:33.976Z,49.04
2023-08-11T14:50:00.862Z,48.96
2023-08-11T14:52:28.107Z,48.69
2023-08-11T14:54:55.026Z,48.71
2023-08-11T14:57:23.042Z,48.87
2023-08-11T14:59:50.174Z,49.08
2023-08-11T15:02:17.315Z,48.91
2023-08-11T15:04:44.301Z,49.09
2023-08-11T15:07:11.259Z,48.91
2023-08-11T15:09:38.245Z,48.93
2023-08-11T15:12:06.976Z,48.78
2023-08-11T15:14:33.899Z,48.82
2023-08-11T15:17:01.379Z,48.77
2023-08-11T15:19:31.002Z,48.88
2023-08-11T15:21:57.981Z,48.98
2023-08-11T15:24:25.033Z,48.93
2023-08-11T15:26:51.944Z,49.10
2023-08-11T15:29:18.835Z,49.05
2023-08-11T15:31:45.709Z,49.15
2023-08-11T15:34:12.683Z,49.16
2023-08-11T15:36:39.697Z,48.98
2023-08-11T15:39:06.621Z,48.92
2023-08-11T15:41:34.048Z,48.84
2023-08-11T15:44:01.172Z,48.90
2023-08-11T15:46:28.571Z,49.08
2023-08-11T15:48:55.945Z,49.21
2023-08-11T15:51:22.865Z,49.11
2023-08-11T15:53:49.755Z,49.03
2023-08-11T15:56:16.634Z,49.06
2023-08-11T15:58:43.554Z,49.00
2023-08-11T16:01:10.531Z,49.19
2023-08-11T16:03:37.620Z,49.02
2023-08-11T16:06:06.758Z,49.19
2023-08-11T16:08:33.765Z,48.89
2023-08-11T16:11:00.692Z,48.88
2023-08-11T16:13:28.161Z,48.85
2023-08-11T16:15:55.087Z,48.86
2023-08-11T16:18:21.969Z,48.84
2023-08-11T16:20:48.996Z,49.09
2023-08-11T16:23:15.911Z,48.95
2023-08-11T16:25:42.960Z,48.88
2023-08-11T16:28:10.933Z,48.97
2023-08-11T16:30:37.984Z,49.35
2023-08-11T16:33:05.263Z,49.11
2023-08-11T16:35:32.226Z,49.52
2023-08-11T16:37:59.150Z,49.32
2023-08-11T16:40:26.116Z,49.24
2023-08-11T16:42:53.004Z,49.31
2023-08-11T16:45:19.995Z,49.24
2023-08-11T16:47:46.995Z,49.48
2023-08-11T16:50:13.999Z,49.48
2023-08-11T16:52:41.032Z,49.47
2023-08-11T16:55:08.915Z,49.21
2023-08-11T16:57:35.851Z,49.37
2023-08-11T17:00:04.476Z,49.54
2023-08-11T17:02:31.456Z,49.44
2023-08-11T17:04:58.441Z,49.13
2023-08-11T17:07:25.323Z,49.50
2023-08-11T17:09:52.193Z,49.59
2023-08-11T17:12:19.154Z,49.39
2023-08-11T17:14:46.057Z,49.19
2023-08-11T17:17:13.039Z,49.27
2023-08-11T17:19:40.077Z,49.43
2023-08-11T17:22:08.158Z,49.45
2023-08-11T17:24:35.150Z,49.65
2023-08-11T17:27:02.281Z,49.56
2023-08-11T17:29:29.149Z,49.31
2023-08-11T17:31:56.081Z,49.38
2023-08-11T17:34:23.082Z,49.14
2023-08-11T17:36:50.209Z,49.52
2023-08-11T17:39:17.161Z,49.44
2023-08-11T17:41:49.475Z,49.72
2023-08-11T17:44:17.148Z,49.83
2023-08-11T17:46:44.115Z,49.76
2023-08-11T17:49:11.182Z,49.49
2023-08-11T17:51:38.267Z,49.58
2023-08-11T17:54:09.634Z,49.53
2023-08-11T17:56:38.455Z,49.71
2023-08-11T17:59:06.384Z,49.87
2023-08-11T18:01:33.554Z,49.70
2023-08-11T18:04:03.445Z,49.87
2023-08-11T18:06:35.170Z,49.65
2023-08-11T18:09:04.773Z,49.52
2023-08-11T18:11:35.993Z,49.73
2023-08-11T18:14:03.051Z,49.69
2023-08-11T18:16:30.105Z,49.91
2023-08-11T18:18:57.296Z,49.81
2023-08-11T18:21:24.236Z,49.68
2023-08-11T18:23:51.198Z,49.80
2023-08-11T18:26:18.152Z,49.79
2023-08-11T18:28:45.373Z,49.59
2023-08-11T18:31:13.515Z,49.90
2023-08-11T18:33:40.583Z,49.96
2023-08-11T18:36:08.435Z,49.75
2023-08-11T18:38:35.486Z,49.90
2023-08-11T18:41:02.430Z,49.72
2023-08-11T18:43:30.204Z,49.67
2023-08-11T18:45:57.180Z,49.62
2023-08-11T18:48:24.212Z,49.66
2023-08-11T18:50:51.762Z,50.00
2023-08-11T18:53:18.685Z,49.67
2023-08-11T18:55:45.608Z,49.80
2023-08-11T18:58:12.536Z,49.79
2023-08-11T19:00:40.603Z,49.75
2023-08-11T19:03:07.792Z,50.01
2023-08-11T19:05:35.223Z,49.72
2023-08-11T19:08:02.581Z,49.72
2023-08-11T19:10:30.201Z,49.66
2023-08-11T19:12:57.284Z,50.03
2023-08-11T19:15:24.400Z,49.89
2023-08-11T19:17:51.436Z,49.81
2023-08-11T19:20:18.663Z,49.84
2023-08-11T19:22:45.648Z,49.65
2023-08-11T19:25:12.779Z,49.85
2023-08-11T19:27:40.006Z,49.84
2023-08-11T19:30:08.374Z,49.87
2023-08-11T19:32:35.788Z,49.87
2023-08-11T19:35:04.041Z,49.90
2023-08-11T19:37:30.945Z,49.92
2023-08-11T19:39:57.873Z,50.08
2023-08-11T19:42:25.031Z,49.96
2023-08-11T19:44:51.980Z,49.90
2023-08-11T19:47:19.086Z,49.56
2023-08-11T19:49:46.173Z,49.98
2023-08-11T19:52:13.445Z,50.20
2023-08-11T19:54:40.726Z,49.99
2023-08-11T19:57:07.725Z,49.88
2023-08-11T19:59:34.667Z,50.16
2023-08-11T20:02:01.557Z,49.90
2023-08-11T20:04:28.516Z,49.93
2023-08-11T20:06:55.785Z,49.82
2023-08-11T20:09:25.634Z,49.78
2023-08-11T20:11:52.643Z,49.82
2023-08-11T20:14:19.859Z,50.12
2023-08-11T20:16:49.489Z,49.83
2023-08-11T20:19:16.678Z,49.93
2023-08-11T20:21:43.687Z,50.01
2023-08-11T20:24:10.771Z,50.04
2023-08-11T20:26:37.859Z,50.13
2023-08-11T20:29:05.417Z,50.19
2023-08-11T20:31:34.064Z,50.10
2023-08-11T20:34:01.620Z,50.06
2023-08-11T20:36:28.862Z,50.00
2023-08-11T20:38:56.002Z,49.95
2023-08-11T20:41:23.190Z,50.37
2023-08-11T20:43:50.131Z,50.29
2023-08-11T20:46:17.189Z,50.41
2023-08-11T20:48:44.120Z,50.26
2023-08-11T20:51:12.970Z,50.54
2023-08-11T20:53:40.352Z,50.29
2023-08-11T20:56:09.223Z,50.48
2023-08-11T20:58:36.890Z,50.41
2023-08-11T21:01:04.023Z,50.31
2023-08-11T21:03:31.002Z,50.39
2023-08-11T21:05:57.919Z,50.55
2023-08-11T21:08:25.044Z,50.38
2023-08-11T21:10:52.082Z,50.23
2023-08-11T21:13:18.989Z,50.47
2023-08-11T21:15:45.869Z,50.33
2023-08-11T21:18:12.876Z,50.33
2023-08-11T21:20:40.039Z,50.46
2023-08-11T21:23:07.685Z,50.66
2023-08-11T21:25:35.367Z,50.43
2023-08-11T21:28:02.321Z,50.69
2023-08-11T21:30:29.271Z,50.36
2023-08-11T21:32:56.273Z,50.80
2023-08-11T21:35:23.247Z,50.61
2023-08-11T21:37:53.247Z,50.61
2023-08-11T21:40:20.165Z,50.82
2023-08-11T21:42:47.051Z,50.40
2023-08-11T21:45:14.001Z,50.80
2023-08-11T21:47:40.941Z,50.78
2023-08-11T21:50:08.896Z,50.65
2023-08-11T21:52:35.866Z,50.48
2023-08-11T21:55:04.199Z,50.79
2023-08-11T21:57:34.423Z,50.69
2023-08-11T22:00:01.480Z,50.52
2023-08-11T22:02:28.429Z,50.80
2023-08-11T22:04:58.341Z,50.60
2023-08-11T22:07:26.914Z,50.74
2023-08-11T22:09:54.093Z,50.64
2023-08-11T22:12:21.270Z,50.50
2023-08-11T22:14:48.293Z,50.47
2023-08-11T22:17:15.202Z,50.53
2023-08-11T22:19:46.854Z,51.10
2023-08-11T22:22:15.648Z,51.16
2023-08-11T22:24:42.649Z,50.91
2023-08-11T22:27:11.225Z,51.05
2023-08-11T22:29:38.773Z,51.37
2023-08-11T22:32:05.964Z,51.15
2023-08-11T22:34:32.913Z,51.01
2023-08-11T22:36:59.899Z,51.53
2023-08-11T22:39:27.204Z,51.16
2023-08-11T22:41:54.212Z,51.38
2023-08-11T22:44:21.183Z,51.30
2023-08-11T22:46:48.078Z,51.20
2023-08-11T22:49:14.993Z,51.46
2023-08-11T22:51:41.931Z,51.18
2023-08-11T22:54:08.875Z,51.32
2023-08-11T22:56:35.845Z,51.31
2023-08-11T22:59:02.869Z,51.27
2023-08-11T23:01:29.907Z,51.29
2023-08-11T23:03:56.893Z,51.43
2023-08-11T23:06:23.850Z,51.50
2023-08-11T23:08:50.705Z,51.56
2023-08-11T23:11:17.623Z,51.35
2023-08-11T23:13:44.553Z,51.38
2023-08-11T23:16:11.480Z,51.21
2023-08-11T23:18:38.527Z,51.32
2023-08-11T23:21:05.494Z,51.40
2023-08-11T23:23:32.390Z,51.34
2023-08-11T23:25:59.333Z,51.21
2023-08-11T23:28:27.916Z,51.49
2023-08-11T23:30:56.117Z,51.29
2023-08-11T23:33:23.115Z,51.20
2023-08-11T23:35:50.165Z,51.60
2023-08-11T23:38:17.054Z,51.40
2023-08-11T23:40:43.955Z,51.63
2023-08-11T23:43:10.885Z,51.24
2023-08-11T23:45:37.961Z,51.55
2023-08-11T23:48:06.728Z,51.70
2023-08-11T23:50:35.116Z,51.76
2023-08-11T23:53:02.028Z,51.56
2023-08-11T23:55:29.125Z,51.29
2023-08-11T23:57:56.231Z,51.41
